KILE

Skylark Field Airport

Killeen, Texas, USA
METAR KILE 110156Z AUTO 16005KT 10SM CLR 06/01 A3038 RMK AO2 SLP309 T00610006
Observed Flight Rules
Dec-11 @ 01:56 UTC (35 minutes ago) Visual Flight Rules
Wind Visibility Clouds
160° at 5 knots 10 miles
  • Clear skies
Temperatures Readings
Current 6°C / 43°F
Dewpoint 1°C / 34°F
Humidity 71%
Altimeter 30.38" Hg
Pressure 1030.9 hPa
Elevation 258
METAR KILE 110156Z AUTO 16005KT 10SM CLR 06/01 A3038 RMK AO2 SLP309 T00610006
Observed Flight Rules
Dec-11 @ 01:56 UTC
(35 minutes ago)
VFR
Wind Visibility
160° at 5 knots 10 miles
Clouds
  • Clear skies
Temperature Dewpoint
6°C / 43°F 1°C / 34°F
Humidity Altimeter Pressure
71% 30.38" Hg 1030.9 hPa